createdAt,value
2019-01-30T00:02:02.421Z,86.80
2019-01-30T00:04:31.592Z,86.90
2019-01-30T00:07:00.818Z,87.20
2019-01-30T00:09:29.990Z,87.20
2019-01-30T00:11:59.159Z,86.60
2019-01-30T00:14:28.358Z,86.50
2019-01-30T00:16:57.560Z,86.90
2019-01-30T00:19:29.068Z,86.70
2019-01-30T00:21:58.230Z,86.40
2019-01-30T00:24:27.404Z,86.30
2019-01-30T00:26:56.627Z,86.30
2019-01-30T00:29:25.864Z,85.90
2019-01-30T00:31:55.033Z,86.00
2019-01-30T00:34:24.225Z,86.40
2019-01-30T00:36:53.417Z,86.20
2019-01-30T00:39:22.604Z,85.80
2019-01-30T00:41:51.838Z,85.90
2019-01-30T00:44:21.392Z,85.80
2019-01-30T00:46:50.604Z,86.00
2019-01-30T00:49:19.856Z,86.30
2019-01-30T00:51:49.041Z,87.20
2019-01-30T00:54:18.223Z,86.70
2019-01-30T00:56:47.881Z,86.60
2019-01-30T00:59:17.444Z,86.50
2019-01-30T01:01:46.655Z,86.40
2019-01-30T01:04:15.834Z,86.50
2019-01-30T01:06:45.127Z,85.40
2019-01-30T01:09:14.330Z,86.00
2019-01-30T01:11:43.546Z,85.90
2019-01-30T01:14:12.748Z,86.00
2019-01-30T01:16:41.928Z,86.00
2019-01-30T01:19:11.679Z,86.30
2019-01-30T01:21:40.871Z,86.80
2019-01-30T01:24:10.049Z,87.10
2019-01-30T01:26:39.227Z,87.60
2019-01-30T01:29:08.324Z,87.50
2019-01-30T01:31:37.529Z,87.80
2019-01-30T01:34:06.707Z,87.30
2019-01-30T01:36:35.911Z,86.80
2019-01-30T01:39:07.454Z,86.40
2019-01-30T01:41:36.627Z,86.20
2019-01-30T01:44:05.914Z,86.70
2019-01-30T01:46:35.099Z,87.00
2019-01-30T01:49:04.761Z,86.60
2019-01-30T01:51:33.959Z,87.10
2019-01-30T01:54:04.599Z,87.30
2019-01-30T01:56:33.830Z,87.10
2019-01-30T01:59:03.016Z,87.30
2019-01-30T02:01:32.226Z,87.20
2019-01-30T02:04:01.754Z,87.30
2019-01-30T02:06:30.933Z,87.10
2019-01-30T02:09:00.140Z,86.60
2019-01-30T02:11:29.344Z,86.60
2019-01-30T02:13:58.566Z,86.40
2019-01-30T02:16:30.502Z,86.00
2019-01-30T02:18:59.672Z,86.50
2019-01-30T02:21:29.401Z,86.90
2019-01-30T02:23:58.580Z,87.30
2019-01-30T02:26:28.636Z,87.30
2019-01-30T02:28:57.808Z,87.20
2019-01-30T02:31:26.984Z,86.90
2019-01-30T02:33:56.156Z,87.50
2019-01-30T02:36:25.352Z,86.20
2019-01-30T02:38:54.528Z,85.90
2019-01-30T02:41:23.687Z,86.10
2019-01-30T02:43:52.893Z,86.00
2019-01-30T02:46:22.088Z,84.80
2019-01-30T02:48:51.676Z,86.00
2019-01-30T02:51:20.879Z,86.80
2019-01-30T02:53:50.045Z,87.00
2019-01-30T02:56:19.243Z,87.50
2019-01-30T02:58:48.424Z,87.10
2019-01-30T03:01:17.616Z,86.70
2019-01-30T03:03:46.808Z,86.10
2019-01-30T03:06:15.988Z,86.00
2019-01-30T03:08:45.142Z,86.00
2019-01-30T03:11:14.332Z,85.60
2019-01-30T03:13:43.508Z,85.20
2019-01-30T03:16:13.242Z,84.70
2019-01-30T03:18:42.362Z,85.00
2019-01-30T03:21:11.535Z,84.90
2019-01-30T03:23:40.703Z,85.30
2019-01-30T03:26:09.928Z,85.60
2019-01-30T03:28:39.091Z,85.70
2019-01-30T03:31:17.470Z,85.60
2019-01-30T03:33:39.105Z,85.40
2019-01-30T03:36:08.268Z,85.30
2019-01-30T03:38:54.823Z,85.50
2019-01-30T03:41:24.052Z,85.70
2019-01-30T03:43:53.410Z,86.00
2019-01-30T03:46:22.540Z,86.10
2019-01-30T03:48:51.718Z,86.00
2019-01-30T03:51:20.925Z,85.80
2019-01-30T03:53:50.110Z,85.40
2019-01-30T03:56:19.283Z,85.10
2019-01-30T03:58:48.489Z,85.10
2019-01-30T04:01:26.495Z,85.10
2019-01-30T04:03:48.612Z,85.10
2019-01-30T04:06:17.824Z,84.90
2019-01-30T04:08:47.050Z,85.00
2019-01-30T04:11:16.223Z,85.00
2019-01-30T04:13:45.386Z,85.10
2019-01-30T04:16:14.977Z,85.20
2019-01-30T04:18:44.240Z,85.20
2019-01-30T04:21:13.457Z,85.00
2019-01-30T04:23:42.659Z,85.10
2019-01-30T04:26:11.827Z,85.20
2019-01-30T04:28:41.033Z,85.20
2019-01-30T04:31:10.207Z,85.50
2019-01-30T04:33:39.414Z,85.40
2019-01-30T04:36:08.579Z,85.30
2019-01-30T04:38:37.739Z,85.50
2019-01-30T04:41:06.929Z,85.40
2019-01-30T04:43:36.561Z,85.40
2019-01-30T04:46:05.812Z,85.60
2019-01-30T04:48:35.001Z,85.90
2019-01-30T04:51:04.176Z,86.00
2019-01-30T04:53:33.402Z,85.90
2019-01-30T04:56:02.577Z,85.80
2019-01-30T04:58:31.777Z,85.80
2019-01-30T05:01:00.939Z,85.90
2019-01-30T05:03:30.141Z,86.00
2019-01-30T05:05:59.315Z,85.70
2019-01-30T05:08:28.504Z,85.90
2019-01-30T05:10:59.241Z,85.90
2019-01-30T05:13:28.431Z,86.00
2019-01-30T05:15:58.201Z,87.20
2019-01-30T05:18:27.337Z,86.60
2019-01-30T05:20:56.510Z,86.60
2019-01-30T05:23:25.674Z,86.40
2019-01-30T05:25:54.857Z,86.60
2019-01-30T05:28:24.024Z,86.60
2019-01-30T05:30:53.240Z,86.40
2019-01-30T05:33:22.422Z,86.40
2019-01-30T05:35:51.584Z,86.50
2019-01-30T05:38:20.768Z,86.40
2019-01-30T05:40:49.952Z,86.20
2019-01-30T05:43:19.119Z,86.60
2019-01-30T05:45:48.356Z,86.90
2019-01-30T05:48:17.530Z,86.80
2019-01-30T05:50:46.692Z,86.60
2019-01-30T05:53:15.878Z,86.70
2019-01-30T05:55:45.059Z,86.70
2019-01-30T05:58:14.228Z,86.60
2019-01-30T06:00:44.780Z,86.40
2019-01-30T06:03:13.957Z,86.70
2019-01-30T06:05:43.130Z,86.70
2019-01-30T06:08:12.305Z,86.60
2019-01-30T06:10:41.487Z,86.70
2019-01-30T06:13:10.662Z,86.80
2019-01-30T06:15:39.861Z,86.90
2019-01-30T06:18:08.984Z,86.80
2019-01-30T06:20:38.156Z,86.50
2019-01-30T06:23:07.315Z,86.40
2019-01-30T06:25:36.756Z,86.40
2019-01-30T06:28:05.953Z,86.40
2019-01-30T06:30:35.117Z,86.40
2019-01-30T06:33:04.323Z,86.20
2019-01-30T06:35:33.504Z,86.50
2019-01-30T06:38:03.089Z,86.40
2019-01-30T06:40:33.698Z,86.90
2019-01-30T06:43:03.023Z,87.00
2019-01-30T06:45:32.149Z,87.10
2019-01-30T06:48:01.373Z,87.30
2019-01-30T06:50:30.585Z,88.30
2019-01-30T06:52:59.803Z,87.80
2019-01-30T06:55:29.038Z,88.10
2019-01-30T06:57:58.305Z,88.10
2019-01-30T07:00:27.783Z,88.30
2019-01-30T07:02:58.070Z,88.30
2019-01-30T07:05:27.234Z,88.20
2019-01-30T07:07:56.461Z,88.00
2019-01-30T07:10:27.467Z,88.00
2019-01-30T07:12:56.565Z,88.00
2019-01-30T07:15:25.881Z,88.10
2019-01-30T07:17:55.143Z,88.20
2019-01-30T07:20:24.352Z,88.40
2019-01-30T07:22:53.556Z,88.50
2019-01-30T07:25:22.992Z,88.90
2019-01-30T07:27:52.178Z,89.30
2019-01-30T07:30:35.255Z,89.60
2019-01-30T07:33:06.122Z,89.70
2019-01-30T07:35:35.353Z,90.00
2019-01-30T07:38:04.566Z,90.10
2019-01-30T07:40:33.771Z,90.20
2019-01-30T07:43:03.027Z,90.20
2019-01-30T07:45:32.163Z,90.20
2019-01-30T07:48:01.362Z,90.40
2019-01-30T07:50:30.559Z,90.50
2019-01-30T07:52:59.799Z,90.80
2019-01-30T07:55:29.092Z,90.80
2019-01-30T07:57:58.316Z,90.90
2019-01-30T08:00:32.730Z,91.00
2019-01-30T08:03:02.380Z,91.10
2019-01-30T08:05:31.619Z,91.20
2019-01-30T08:08:00.819Z,91.20
2019-01-30T08:10:31.244Z,91.50
2019-01-30T08:13:00.397Z,91.40
2019-01-30T08:15:29.637Z,91.40
2019-01-30T08:17:59.201Z,91.50
2019-01-30T08:20:28.445Z,91.60
2019-01-30T08:22:57.977Z,91.60
2019-01-30T08:25:27.702Z,91.50
2019-01-30T08:27:57.449Z,91.50
2019-01-30T08:30:31.399Z,91.50
2019-01-30T08:33:05.836Z,91.60
2019-01-30T08:35:35.193Z,91.60
2019-01-30T08:38:05.502Z,91.60
2019-01-30T08:40:35.245Z,91.70
2019-01-30T08:43:04.560Z,91.70
2019-01-30T08:45:33.899Z,91.70
2019-01-30T08:48:03.282Z,91.70
2019-01-30T08:50:32.604Z,91.70
2019-01-30T08:53:01.888Z,91.70
2019-01-30T08:55:31.193Z,91.70
2019-01-30T08:58:00.687Z,91.70
2019-01-30T09:00:30.541Z,91.90
2019-01-30T09:03:01.627Z,91.90
2019-01-30T09:05:31.056Z,92.00
2019-01-30T09:08:00.325Z,92.00
2019-01-30T09:10:29.593Z,92.00
2019-01-30T09:12:58.810Z,92.00
2019-01-30T09:15:28.699Z,92.00
2019-01-30T09:17:59.343Z,92.00
2019-01-30T09:20:29.193Z,91.90
2019-01-30T09:22:58.473Z,91.90
2019-01-30T09:25:29.954Z,91.90
2019-01-30T09:28:02.244Z,91.90
2019-01-30T09:30:33.925Z,91.90
2019-01-30T09:33:03.313Z,92.00
2019-01-30T09:35:32.579Z,92.10
2019-01-30T09:38:01.900Z,92.00
2019-01-30T09:40:31.400Z,92.20
2019-01-30T09:43:01.011Z,92.10
2019-01-30T09:45:30.265Z,92.10
2019-01-30T09:47:59.458Z,92.20
2019-01-30T09:50:28.690Z,92.20
2019-01-30T09:53:00.735Z,92.20
2019-01-30T09:55:30.028Z,92.30
2019-01-30T09:57:59.773Z,92.30
2019-01-30T10:00:30.936Z,92.20
2019-01-30T10:03:01.964Z,92.30
2019-01-30T10:05:31.490Z,92.40
2019-01-30T10:08:00.705Z,92.40
2019-01-30T10:10:34.704Z,92.50
2019-01-30T10:13:04.101Z,92.90
2019-01-30T10:15:38.554Z,92.60
2019-01-30T10:18:08.366Z,92.60
2019-01-30T10:20:38.373Z,92.60
2019-01-30T10:23:08.132Z,92.70
2019-01-30T10:25:37.326Z,92.70
2019-01-30T10:28:16.327Z,92.80
2019-01-30T10:30:39.558Z,92.80
2019-01-30T10:33:08.804Z,92.80
2019-01-30T10:35:38.615Z,92.80
2019-01-30T10:38:07.878Z,92.90
2019-01-30T10:40:37.232Z,93.00
2019-01-30T10:43:06.619Z,93.00
2019-01-30T10:45:38.175Z,93.00
2019-01-30T10:48:08.181Z,93.30
2019-01-30T10:50:37.846Z,93.30
2019-01-30T10:53:07.054Z,93.30
2019-01-30T10:55:36.958Z,93.40
2019-01-30T10:58:08.977Z,93.40
2019-01-30T11:00:41.334Z,93.30
2019-01-30T11:03:10.667Z,93.30
2019-01-30T11:05:39.933Z,93.30
2019-01-30T11:08:09.165Z,93.20
2019-01-30T11:10:39.017Z,93.40
2019-01-30T11:13:08.342Z,93.30
2019-01-30T11:15:38.070Z,93.40
2019-01-30T11:18:14.738Z,93.40
2019-01-30T11:20:43.999Z,93.30
2019-01-30T11:23:14.732Z,93.30
2019-01-30T11:25:45.714Z,93.40
2019-01-30T11:28:15.265Z,93.40
2019-01-30T11:30:45.480Z,93.40
2019-01-30T11:33:15.626Z,93.50
2019-01-30T11:35:45.222Z,93.60
2019-01-30T11:38:14.783Z,93.70
2019-01-30T11:40:44.409Z,93.80
2019-01-30T11:43:13.692Z,93.80
2019-01-30T11:45:44.502Z,93.80
2019-01-30T11:48:13.722Z,93.80
2019-01-30T11:50:43.470Z,93.90
2019-01-30T11:53:13.157Z,93.80
2019-01-30T11:55:42.448Z,94.00
2019-01-30T11:58:16.388Z,94.10
2019-01-30T12:00:53.080Z,94.00
2019-01-30T12:03:22.720Z,94.00
2019-01-30T12:05:52.365Z,94.20
2019-01-30T12:08:21.940Z,94.30
2019-01-30T12:10:51.158Z,94.40
2019-01-30T12:13:20.461Z,94.50
2019-01-30T12:15:50.321Z,94.50
2019-01-30T12:18:19.746Z,94.50
2019-01-30T12:20:51.828Z,94.50
2019-01-30T12:23:20.387Z,94.60
2019-01-30T12:25:50.171Z,94.50
2019-01-30T12:28:19.490Z,94.50
2019-01-30T12:30:48.712Z,94.50
2019-01-30T12:33:17.990Z,94.50
2019-01-30T12:35:47.534Z,94.60
2019-01-30T12:38:17.241Z,94.70
2019-01-30T12:40:46.505Z,94.60
2019-01-30T12:43:15.704Z,94.60
2019-01-30T12:45:44.931Z,94.60
2019-01-30T12:48:14.624Z,94.70
2019-01-30T12:50:43.883Z,94.70
2019-01-30T12:53:13.178Z,94.70
2019-01-30T12:55:42.404Z,94.70
2019-01-30T12:58:13.572Z,94.70
2019-01-30T13:00:42.905Z,94.70
2019-01-30T13:03:12.155Z,94.70
2019-01-30T13:05:41.888Z,94.70
2019-01-30T13:08:11.292Z,94.80
2019-01-30T13:10:42.326Z,94.70
2019-01-30T13:13:11.681Z,94.60
2019-01-30T13:15:43.015Z,94.60
2019-01-30T13:18:18.035Z,94.60
2019-01-30T13:20:43.194Z,94.50
2019-01-30T13:23:12.441Z,94.40
2019-01-30T13:25:41.713Z,94.40
2019-01-30T13:28:10.943Z,94.50
2019-01-30T13:30:43.568Z,94.60
2019-01-30T13:33:11.948Z,94.60
2019-01-30T13:35:41.196Z,94.60
2019-01-30T13:38:11.004Z,94.60
2019-01-30T13:40:41.392Z,94.60
2019-01-30T13:43:11.083Z,94.60
2019-01-30T13:45:40.342Z,94.50
2019-01-30T13:48:22.622Z,94.50
2019-01-30T13:50:51.843Z,94.60
2019-01-30T13:53:21.106Z,94.50
2019-01-30T13:55:50.895Z,94.50
2019-01-30T13:58:20.284Z,94.50
2019-01-30T14:00:49.561Z,94.40
2019-01-30T14:03:18.816Z,94.40
2019-01-30T14:05:48.132Z,94.50
2019-01-30T14:08:17.437Z,94.50
2019-01-30T14:10:47.076Z,94.60
2019-01-30T14:13:16.447Z,94.60
2019-01-30T14:15:46.108Z,94.60
2019-01-30T14:18:15.621Z,94.60
2019-01-30T14:20:45.521Z,94.60
2019-01-30T14:23:14.954Z,94.60
2019-01-30T14:25:44.236Z,94.60
2019-01-30T14:28:15.205Z,94.60
2019-01-30T14:30:45.922Z,94.60
2019-01-30T14:33:15.601Z,94.60
2019-01-30T14:35:46.328Z,94.50
2019-01-30T14:38:15.578Z,94.50
2019-01-30T14:40:44.799Z,94.50
2019-01-30T14:43:14.647Z,94.40
2019-01-30T14:45:44.025Z,94.60
2019-01-30T14:48:14.137Z,94.50
2019-01-30T14:50:43.318Z,94.50
2019-01-30T14:53:12.532Z,94.50
2019-01-30T14:55:41.737Z,94.50
2019-01-30T14:58:11.086Z,94.50
2019-01-30T15:00:40.291Z,94.50
2019-01-30T15:03:09.517Z,94.50
2019-01-30T15:05:38.772Z,94.50
2019-01-30T15:08:07.975Z,94.80
2019-01-30T15:10:37.151Z,94.50
2019-01-30T15:13:11.470Z,94.50
2019-01-30T15:15:38.270Z,94.50
2019-01-30T15:18:08.520Z,94.40
2019-01-30T15:20:38.812Z,94.40
2019-01-30T15:23:09.925Z,94.40
2019-01-30T15:25:39.157Z,94.40
2019-01-30T15:28:09.109Z,94.40
2019-01-30T15:30:40.955Z,94.40
2019-01-30T15:33:10.775Z,94.40
2019-01-30T15:35:40.006Z,94.40
2019-01-30T15:38:11.077Z,94.40
2019-01-30T15:40:40.421Z,94.30
2019-01-30T15:43:09.641Z,94.40
2019-01-30T15:45:39.263Z,94.40
2019-01-30T15:48:08.488Z,94.50
2019-01-30T15:50:39.216Z,94.60
2019-01-30T15:53:11.543Z,94.60
2019-01-30T15:55:40.802Z,94.80
2019-01-30T15:58:13.230Z,95.10
2019-01-30T16:00:45.097Z,95.10
2019-01-30T16:03:14.310Z,95.20
2019-01-30T16:05:45.057Z,95.80
2019-01-30T16:08:14.804Z,95.90
2019-01-30T16:10:44.025Z,95.80
2019-01-30T16:13:13.237Z,95.90
2019-01-30T16:15:48.668Z,95.50
2019-01-30T16:18:18.224Z,95.40
2019-01-30T16:20:47.437Z,95.40
2019-01-30T16:23:16.639Z,95.40
2019-01-30T16:25:45.841Z,95.40
2019-01-30T16:28:15.100Z,95.70
2019-01-30T16:30:44.618Z,95.50
2019-01-30T16:33:14.781Z,95.50
2019-01-30T16:35:55.321Z,95.50
2019-01-30T16:38:14.875Z,95.50
2019-01-30T16:40:44.121Z,95.50
2019-01-30T16:43:14.207Z,95.40
2019-01-30T16:45:43.575Z,95.40
2019-01-30T16:48:12.909Z,95.40
2019-01-30T16:50:42.116Z,95.50
2019-01-30T16:53:11.399Z,95.50
2019-01-30T16:55:40.651Z,95.40
2019-01-30T16:58:11.380Z,95.50
2019-01-30T17:00:40.678Z,95.60
2019-01-30T17:03:10.145Z,95.70
2019-01-30T17:05:39.606Z,95.70
2019-01-30T17:08:08.977Z,95.70
2019-01-30T17:10:38.172Z,95.70
2019-01-30T17:13:07.655Z,95.70
2019-01-30T17:15:37.607Z,96.00
2019-01-30T17:18:08.022Z,96.40
2019-01-30T17:20:38.385Z,96.00
2019-01-30T17:23:07.649Z,96.00
2019-01-30T17:25:36.904Z,96.00
2019-01-30T17:28:06.209Z,95.90
2019-01-30T17:30:41.464Z,95.90
2019-01-30T17:33:11.299Z,95.90
2019-01-30T17:35:41.421Z,95.80
2019-01-30T17:38:10.852Z,95.80
2019-01-30T17:40:40.079Z,95.80
2019-01-30T17:43:09.334Z,95.80
2019-01-30T17:45:38.950Z,95.80
2019-01-30T17:48:09.358Z,95.70
2019-01-30T17:50:38.561Z,95.70
2019-01-30T17:53:09.464Z,95.60
2019-01-30T17:55:38.701Z,95.60
2019-01-30T17:58:12.106Z,95.70
2019-01-30T18:01:00.350Z,95.70
2019-01-30T18:03:29.580Z,95.70
2019-01-30T18:05:58.787Z,95.90
2019-01-30T18:08:28.035Z,95.90
2019-01-30T18:10:57.310Z,96.00
2019-01-30T18:13:26.612Z,95.90
2019-01-30T18:15:55.802Z,95.90
2019-01-30T18:18:25.011Z,96.00
2019-01-30T18:20:54.584Z,96.00
2019-01-30T18:23:23.840Z,96.00
2019-01-30T18:25:53.072Z,95.90
2019-01-30T18:28:22.566Z,96.00
2019-01-30T18:30:51.808Z,95.90
2019-01-30T18:33:21.015Z,96.30
2019-01-30T18:35:50.137Z,96.30
2019-01-30T18:38:19.625Z,96.40
2019-01-30T18:40:49.622Z,96.50
2019-01-30T18:43:26.929Z,96.80
2019-01-30T18:45:57.554Z,97.10
2019-01-30T18:48:26.856Z,97.30
2019-01-30T18:50:57.039Z,97.70
2019-01-30T18:53:26.276Z,97.30
2019-01-30T18:55:58.019Z,97.50
2019-01-30T18:58:34.861Z,97.60
2019-01-30T19:01:06.727Z,97.70
2019-01-30T19:03:34.921Z,97.60
2019-01-30T19:06:04.210Z,97.70
2019-01-30T19:08:33.403Z,98.20
2019-01-30T19:11:03.185Z,98.20
2019-01-30T19:13:32.370Z,98.50
2019-01-30T19:16:01.580Z,98.50
2019-01-30T19:18:30.796Z,98.60
2019-01-30T19:20:59.993Z,98.60
2019-01-30T19:23:29.249Z,98.70
2019-01-30T19:25:59.213Z,98.70
2019-01-30T19:28:28.472Z,98.60
2019-01-30T19:30:57.665Z,98.40
2019-01-30T19:33:26.857Z,98.10
2019-01-30T19:35:56.104Z,97.90
2019-01-30T19:38:25.311Z,97.90
2019-01-30T19:40:54.475Z,98.00
2019-01-30T19:43:23.731Z,97.90
2019-01-30T19:45:52.925Z,97.80
2019-01-30T19:48:22.146Z,97.70
2019-01-30T19:50:51.365Z,97.60
2019-01-30T19:53:20.576Z,97.40
2019-01-30T19:55:49.859Z,97.40
2019-01-30T19:58:19.111Z,97.30
2019-01-30T20:00:49.227Z,97.30
2019-01-30T20:03:21.517Z,97.30
2019-01-30T20:05:50.786Z,97.20
2019-01-30T20:08:20.035Z,97.20
2019-01-30T20:10:49.545Z,97.10
2019-01-30T20:13:18.796Z,97.10
2019-01-30T20:15:48.024Z,97.00
2019-01-30T20:18:17.240Z,97.10
2019-01-30T20:20:46.413Z,97.20
2019-01-30T20:23:17.037Z,97.20
2019-01-30T20:25:46.577Z,97.20
2019-01-30T20:28:15.765Z,97.20
2019-01-30T20:30:44.969Z,97.10
2019-01-30T20:33:14.492Z,97.20
2019-01-30T20:35:43.934Z,97.20
2019-01-30T20:38:13.174Z,97.20
2019-01-30T20:40:42.370Z,97.20
2019-01-30T20:43:11.651Z,97.10
2019-01-30T20:45:41.218Z,97.30
2019-01-30T20:48:10.870Z,97.40
2019-01-30T20:50:40.148Z,97.70
2019-01-30T20:53:09.368Z,97.60
2019-01-30T20:55:38.577Z,97.80
2019-01-30T20:58:07.823Z,97.80
2019-01-30T21:00:40.777Z,97.90
2019-01-30T21:03:10.415Z,98.20
2019-01-30T21:05:40.858Z,98.40
2019-01-30T21:08:10.102Z,98.30
2019-01-30T21:10:41.382Z,98.40
2019-01-30T21:13:13.152Z,98.70
2019-01-30T21:15:42.347Z,98.90
2019-01-30T21:18:12.525Z,98.80
2019-01-30T21:20:42.131Z,98.80
2019-01-30T21:23:11.936Z,98.80
2019-01-30T21:25:41.137Z,98.60
2019-01-30T21:28:10.356Z,98.30
2019-01-30T21:30:39.854Z,98.00
2019-01-30T21:33:09.057Z,97.80
2019-01-30T21:35:38.668Z,97.90
2019-01-30T21:38:07.916Z,98.00
2019-01-30T21:40:37.125Z,98.10
2019-01-30T21:43:06.368Z,98.60
2019-01-30T21:45:35.543Z,98.10
2019-01-30T21:48:05.271Z,98.10
2019-01-30T21:50:35.395Z,97.90
2019-01-30T21:53:05.069Z,97.90
2019-01-30T21:55:34.200Z,97.70
2019-01-30T21:58:04.327Z,97.70
2019-01-30T22:00:33.541Z,97.60
2019-01-30T22:03:02.743Z,97.50
2019-01-30T22:05:31.990Z,97.40
2019-01-30T22:08:01.484Z,97.20
2019-01-30T22:10:31.246Z,97.00
2019-01-30T22:13:00.482Z,97.10
2019-01-30T22:15:29.668Z,97.20
2019-01-30T22:17:58.983Z,97.30
2019-01-30T22:20:28.245Z,97.40
2019-01-30T22:22:57.424Z,97.40
2019-01-30T22:25:27.596Z,97.40
2019-01-30T22:27:56.777Z,97.30
2019-01-30T22:30:33.605Z,97.10
2019-01-30T22:33:03.028Z,97.00
2019-01-30T22:35:32.213Z,96.80
2019-01-30T22:38:11.612Z,96.80
2019-01-30T22:40:32.311Z,96.60
2019-01-30T22:43:01.495Z,96.70
2019-01-30T22:45:30.683Z,96.50
2019-01-30T22:48:00.076Z,96.50
2019-01-30T22:50:29.272Z,96.50
2019-01-30T22:52:58.396Z,96.30
2019-01-30T22:55:27.564Z,96.30
2019-01-30T22:57:56.800Z,96.50
2019-01-30T23:00:52.371Z,96.60
2019-01-30T23:03:25.688Z,96.70
2019-01-30T23:06:21.687Z,96.70
2019-01-30T23:09:19.052Z,96.60
2019-01-30T23:12:16.984Z,96.50
2019-01-30T23:14:57.020Z,96.80
2019-01-30T23:18:06.747Z,96.70
2019-01-30T23:20:45.480Z,96.90
2019-01-30T23:23:55.645Z,96.90
2019-01-30T23:27:01.663Z,96.70
2019-01-30T23:30:15.926Z,96.80
2019-01-30T23:33:37.513Z,96.80
2019-01-30T23:36:46.741Z,96.90
2019-01-30T23:40:08.208Z,97.00
2019-01-30T23:42:59.085Z,97.20
2019-01-30T23:45:59.886Z,97.20
2019-01-30T23:48:55.188Z,97.30
2019-01-30T23:52:24.308Z,97.30
2019-01-30T23:55:08.345Z,97.50
2019-01-30T23:58:22.783Z,97.40
